CYQZ

Quesnel Airport

Quesnel, British Columbia, Canada
METAR CYQZ 172100Z AUTO VRB02KT 9SM OVC046 00/M02 A2978 RMK SLP111
Observed Flight Rules
Dec-17 @ 21:00 UTC (36 minutes ago) Visual Flight Rules
Wind Visibility Clouds
Variable at 2 knots 9 miles
  • Overcast at 4,600' AGL
Temperatures Readings
Current 0°C / 32°F
Dewpoint -2°C / 28°F
Humidity 87%
Altimeter 29.78" Hg
Pressure 1011.1 hPa
Elevation 545
METAR CYQZ 172100Z AUTO VRB02KT 9SM OVC046 00/M02 A2978 RMK SLP111
Observed Flight Rules
Dec-17 @ 21:00 UTC
(36 minutes ago)
VFR
Wind Visibility
Variable at 2 knots 9 miles
Clouds
  • Overcast at 4,600' AGL
Temperature Dewpoint
0°C / 32°F -2°C / 28°F
Humidity Altimeter Pressure
87% 29.78" Hg 1011.1 hPa